createdAt,value
2022-12-11T00:00:40.834Z,33.65
2022-12-11T00:03:12.892Z,39.40
2022-12-11T00:05:45.276Z,37.10
2022-12-11T00:08:14.061Z,34.10
2022-12-11T00:10:50.044Z,31.13
2022-12-11T00:13:17.982Z,35.75
2022-12-11T00:15:45.955Z,29.73
2022-12-11T00:18:15.219Z,34.60
2022-12-11T00:20:44.128Z,35.72
2022-12-11T00:23:12.427Z,36.90
2022-12-11T00:25:45.598Z,30.00
2022-12-11T00:28:18.949Z,31.15
2022-12-11T00:30:47.377Z,30.70
2022-12-11T00:33:16.039Z,30.55
2022-12-11T00:35:46.885Z,29.77
2022-12-11T00:38:21.777Z,27.38
2022-12-11T00:40:49.724Z,26.48
2022-12-11T00:43:18.028Z,29.73
2022-12-11T00:45:47.809Z,28.63
2022-12-11T00:48:16.003Z,26.33
2022-12-11T00:50:44.109Z,25.85
2022-12-11T00:53:12.076Z,25.00
2022-12-11T00:55:42.595Z,24.98
2022-12-11T00:58:12.285Z,25.67
2022-12-11T01:00:42.654Z,24.85
2022-12-11T01:03:13.581Z,26.92
2022-12-11T01:05:41.603Z,20.48
2022-12-11T01:08:09.620Z,23.45
2022-12-11T01:10:37.617Z,25.95
2022-12-11T01:13:07.700Z,24.02
2022-12-11T01:15:42.723Z,20.70
2022-12-11T01:18:13.941Z,24.17
2022-12-11T01:20:43.367Z,26.83
2022-12-11T01:23:14.063Z,22.42
2022-12-11T01:25:42.856Z,21.98
2022-12-11T01:28:11.096Z,23.30
2022-12-11T01:30:41.611Z,23.80
2022-12-11T01:33:10.327Z,22.95
2022-12-11T01:35:40.390Z,25.05
2022-12-11T01:38:09.993Z,24.80
2022-12-11T01:40:38.048Z,20.00
2022-12-11T01:43:06.021Z,24.77
2022-12-11T01:45:42.137Z,22.70
2022-12-11T01:48:27.599Z,26.38
2022-12-11T01:51:03.632Z,24.42
2022-12-11T01:53:37.147Z,21.38
2022-12-11T01:56:06.647Z,22.50
2022-12-11T01:58:42.043Z,22.67
2022-12-11T02:01:17.096Z,24.95
2022-12-11T02:03:45.136Z,28.92
2022-12-11T02:06:39.780Z,26.30
2022-12-11T02:09:13.803Z,20.83
2022-12-11T02:12:07.614Z,26.60
2022-12-11T02:15:40.173Z,30.50
2022-12-11T02:20:55.710Z,22.42
2022-12-11T02:24:08.577Z,22.98
2022-12-11T02:27:06.723Z,21.95
2022-12-11T02:29:44.423Z,22.33
2022-12-11T02:32:47.047Z,21.20
2022-12-11T02:35:38.376Z,21.60
2022-12-11T02:38:33.898Z,25.13
2022-12-11T02:41:05.481Z,25.33
2022-12-11T02:46:06.539Z,23.58
2022-12-11T02:48:36.506Z,22.10
2022-12-11T02:51:06.679Z,24.95
2022-12-11T02:53:40.174Z,21.98
2022-12-11T02:56:22.657Z,20.00
2022-12-11T02:59:00.664Z,20.88
2022-12-11T03:01:28.936Z,23.65
2022-12-11T03:03:58.381Z,22.98
2022-12-11T03:06:41.230Z,19.20
2022-12-11T03:09:09.390Z,20.38
2022-12-11T03:11:37.324Z,21.38
2022-12-11T03:14:06.404Z,21.15
2022-12-11T03:16:55.677Z,23.15
2022-12-11T03:19:29.778Z,22.20
2022-12-11T03:22:05.086Z,22.67
2022-12-11T03:24:51.224Z,20.73
2022-12-11T03:27:42.573Z,22.55
2022-12-11T03:30:18.059Z,21.42
2022-12-11T03:33:13.992Z,22.40
2022-12-11T03:35:52.086Z,21.75
2022-12-11T03:38:53.949Z,19.75
2022-12-11T03:41:26.193Z,17.67
2022-12-11T03:43:58.539Z,22.70
2022-12-11T03:46:33.636Z,20.38
2022-12-11T03:49:16.700Z,23.27
2022-12-11T03:51:49.529Z,21.65
2022-12-11T03:54:19.076Z,20.08
2022-12-11T03:56:49.104Z,19.85
2022-12-11T03:59:17.125Z,19.63
2022-12-11T04:01:45.041Z,21.42
2022-12-11T04:04:13.081Z,18.15
2022-12-11T04:06:41.095Z,18.98
2022-12-11T04:09:09.130Z,18.02
2022-12-11T04:11:37.048Z,21.73
2022-12-11T04:14:27.614Z,18.23
2022-12-11T04:16:57.731Z,18.63
2022-12-11T04:20:04.970Z,21.23
2022-12-11T04:22:38.935Z,17.55
2022-12-11T04:25:09.116Z,20.92
2022-12-11T04:27:49.297Z,16.98
2022-12-11T04:30:30.813Z,17.88
2022-12-11T04:33:02.207Z,20.75
2022-12-11T04:35:30.298Z,21.33
2022-12-11T04:37:58.675Z,18.90
2022-12-11T04:40:26.930Z,20.88
2022-12-11T04:42:55.325Z,20.52
2022-12-11T04:45:23.622Z,19.38
2022-12-11T04:47:51.771Z,17.85
2022-12-11T04:50:20.110Z,17.92
2022-12-11T04:52:48.110Z,21.00
2022-12-11T04:55:16.130Z,19.73
2022-12-11T04:57:44.238Z,17.90
2022-12-11T05:00:13.301Z,20.27
2022-12-11T05:02:42.624Z,14.85
2022-12-11T05:05:12.490Z,21.67
2022-12-11T05:07:41.145Z,19.95
2022-12-11T05:10:09.717Z,17.88
2022-12-11T05:12:37.682Z,19.38
2022-12-11T05:15:06.439Z,19.85
2022-12-11T05:17:34.760Z,17.30
2022-12-11T05:20:02.995Z,20.05
2022-12-11T05:22:32.055Z,21.45
2022-12-11T05:25:00.280Z,21.45
2022-12-11T05:27:29.126Z,17.77
2022-12-11T05:29:59.621Z,20.02
2022-12-11T05:32:28.556Z,16.55
2022-12-11T05:34:59.632Z,17.95
2022-12-11T05:37:27.799Z,17.17
2022-12-11T05:39:56.793Z,20.05
2022-12-11T05:42:28.775Z,17.70
2022-12-11T05:45:00.012Z,17.13
2022-12-11T05:47:28.462Z,18.98
2022-12-11T05:49:56.872Z,19.70
2022-12-11T05:52:24.989Z,16.27
2022-12-11T05:54:53.104Z,16.38
2022-12-11T05:57:21.110Z,14.38
2022-12-11T05:59:49.323Z,18.88
2022-12-11T06:02:17.543Z,21.77
2022-12-11T06:04:45.571Z,34.35
2022-12-11T06:07:13.993Z,21.08
2022-12-11T06:09:42.080Z,19.13
2022-12-11T06:12:10.065Z,16.08
2022-12-11T06:14:38.137Z,22.83
2022-12-11T06:17:06.304Z,24.13
2022-12-11T06:19:36.973Z,17.33
2022-12-11T06:22:05.674Z,19.75
2022-12-11T06:24:33.930Z,24.38
2022-12-11T06:27:01.912Z,16.88
2022-12-11T06:29:29.959Z,20.10
2022-12-11T06:31:59.620Z,23.60
2022-12-11T06:34:28.094Z,22.23
2022-12-11T06:36:57.010Z,18.08
2022-12-11T06:39:25.020Z,17.60
2022-12-11T06:41:53.044Z,21.52
2022-12-11T06:44:21.331Z,15.43
2022-12-11T06:46:49.312Z,18.75
2022-12-11T06:49:17.460Z,15.32
2022-12-11T06:51:45.586Z,17.33
2022-12-11T06:54:14.168Z,18.15
2022-12-11T06:56:42.771Z,14.75
2022-12-11T06:59:14.294Z,18.92
2022-12-11T07:01:42.480Z,17.53
2022-12-11T07:04:10.615Z,17.05
2022-12-11T07:06:40.106Z,17.75
2022-12-11T07:09:08.210Z,16.00
2022-12-11T07:11:36.713Z,16.38
2022-12-11T07:14:04.913Z,16.30
2022-12-11T07:16:33.191Z,19.45
2022-12-11T07:19:01.250Z,18.10
2022-12-11T07:21:29.620Z,13.23
2022-12-11T07:23:58.125Z,17.25
2022-12-11T07:26:26.735Z,18.52
2022-12-11T07:28:59.141Z,15.50
2022-12-11T07:31:29.798Z,13.07
2022-12-11T07:34:06.777Z,17.60
2022-12-11T07:36:35.121Z,17.60
2022-12-11T07:39:03.533Z,15.90
2022-12-11T07:41:32.132Z,14.82
2022-12-11T07:44:02.121Z,19.25
2022-12-11T07:46:33.103Z,14.95
2022-12-11T07:49:01.354Z,15.15
2022-12-11T07:51:32.321Z,16.48
2022-12-11T07:54:09.335Z,18.67
2022-12-11T07:56:37.831Z,17.90
2022-12-11T07:59:06.681Z,16.20
2022-12-11T08:01:38.159Z,17.73
2022-12-11T08:04:11.953Z,15.70
2022-12-11T08:06:40.705Z,21.05
2022-12-11T08:09:17.443Z,20.02
2022-12-11T08:11:52.078Z,17.52
2022-12-11T08:14:21.164Z,19.25
2022-12-11T08:16:49.480Z,18.08
2022-12-11T08:19:18.235Z,19.30
2022-12-11T08:21:46.954Z,15.75
2022-12-11T08:24:16.605Z,15.50
2022-12-11T08:26:46.610Z,16.13
2022-12-11T08:29:15.153Z,16.27
2022-12-11T08:31:43.389Z,16.67
2022-12-11T08:34:14.037Z,17.95
2022-12-11T08:36:42.685Z,19.35
2022-12-11T08:39:10.951Z,18.60
2022-12-11T08:41:39.600Z,16.05
2022-12-11T08:44:16.529Z,13.63
2022-12-11T08:46:46.444Z,19.42
2022-12-11T08:49:14.603Z,16.15
2022-12-11T08:51:43.173Z,19.42
2022-12-11T08:54:11.890Z,17.90
2022-12-11T08:56:39.880Z,18.30
2022-12-11T08:59:07.798Z,15.18
2022-12-11T09:01:36.105Z,16.90
2022-12-11T09:04:04.384Z,16.42
2022-12-11T09:06:33.603Z,21.25
2022-12-11T09:09:04.113Z,15.20
2022-12-11T09:11:35.527Z,18.85
2022-12-11T09:14:07.708Z,19.83
2022-12-11T09:16:40.892Z,20.02
2022-12-11T09:19:17.939Z,17.95
2022-12-11T09:21:46.247Z,14.65
2022-12-11T09:24:15.694Z,15.02
2022-12-11T09:26:44.055Z,15.73
2022-12-11T09:29:13.320Z,17.83
2022-12-11T09:31:41.934Z,14.30
2022-12-11T09:34:13.927Z,17.98
2022-12-11T09:36:44.438Z,20.63
2022-12-11T09:39:15.159Z,15.60
2022-12-11T09:42:13.996Z,15.52
2022-12-11T09:44:55.658Z,17.30
2022-12-11T09:47:50.648Z,16.40
2022-12-11T09:50:33.366Z,18.40
2022-12-11T09:53:30.972Z,18.77
2022-12-11T09:56:33.321Z,19.13
2022-12-11T09:59:47.606Z,17.00
2022-12-11T10:02:42.636Z,15.50
2022-12-11T10:05:45.835Z,21.95
2022-12-11T10:08:38.308Z,18.08
2022-12-11T10:11:27.552Z,18.58
2022-12-11T10:14:21.519Z,18.17
2022-12-11T10:17:09.813Z,16.27
2022-12-11T10:19:38.574Z,16.58
2022-12-11T10:22:23.654Z,17.17
2022-12-11T10:25:11.128Z,21.83
2022-12-11T10:27:41.746Z,25.25
2022-12-11T10:30:21.715Z,30.33
2022-12-11T10:33:11.617Z,22.20
2022-12-11T10:35:51.796Z,20.65
2022-12-11T10:38:33.586Z,18.73
2022-12-11T10:43:44.375Z,20.40
2022-12-11T10:46:21.056Z,17.95
2022-12-11T10:48:55.391Z,20.50
2022-12-11T10:51:32.210Z,19.10
2022-12-11T10:54:30.106Z,20.42
2022-12-11T10:56:59.344Z,20.60
2022-12-11T10:59:48.308Z,21.17
2022-12-11T11:02:26.455Z,16.75
2022-12-11T11:04:57.350Z,24.15
2022-12-11T11:07:31.493Z,19.90
2022-12-11T11:10:12.034Z,22.55
2022-12-11T11:12:44.872Z,21.20
2022-12-11T11:15:16.745Z,23.67
2022-12-11T11:17:54.686Z,24.67
2022-12-11T11:20:30.437Z,18.92
2022-12-11T11:23:05.169Z,19.45
2022-12-11T11:25:34.550Z,22.05
2022-12-11T11:28:06.955Z,18.15
2022-12-11T11:30:39.828Z,22.42
2022-12-11T11:33:18.696Z,20.75
2022-12-11T11:36:03.651Z,17.30
2022-12-11T11:38:50.264Z,19.27
2022-12-11T11:42:01.833Z,21.92
2022-12-11T11:44:48.988Z,23.35
2022-12-11T11:47:31.575Z,23.27
2022-12-11T11:50:25.655Z,21.83
2022-12-11T11:53:37.526Z,21.17
2022-12-11T11:56:28.980Z,20.52
2022-12-11T11:59:40.464Z,20.20
2022-12-11T12:02:16.990Z,21.67
2022-12-11T12:04:46.900Z,18.88
2022-12-11T12:07:40.112Z,29.38
2022-12-11T12:10:14.071Z,29.33
2022-12-11T12:13:30.085Z,29.63
2022-12-11T12:16:02.186Z,28.08
2022-12-11T12:19:03.216Z,30.38
2022-12-11T12:21:39.611Z,35.10
2022-12-11T12:24:26.202Z,39.70
2022-12-11T12:27:55.296Z,29.02
2022-12-11T12:30:24.194Z,33.40
2022-12-11T12:33:36.519Z,25.02
2022-12-11T12:36:13.622Z,29.30
2022-12-11T12:38:41.738Z,27.80
2022-12-11T12:41:29.464Z,25.58
2022-12-11T12:44:11.119Z,21.38
2022-12-11T12:46:58.989Z,28.17
2022-12-11T12:49:51.242Z,31.52
2022-12-11T12:52:33.297Z,35.30
2022-12-11T12:55:23.261Z,26.10
2022-12-11T12:58:01.318Z,29.08
2022-12-11T13:00:40.315Z,32.40
2022-12-11T13:03:21.912Z,37.50
2022-12-11T13:06:02.297Z,23.75
2022-12-11T13:08:48.842Z,27.75
2022-12-11T13:11:20.230Z,24.95
2022-12-11T13:14:09.085Z,34.65
2022-12-11T13:16:42.197Z,28.40
2022-12-11T13:19:27.768Z,20.73
2022-12-11T13:22:15.030Z,23.52
2022-12-11T13:24:52.306Z,23.05
2022-12-11T13:27:27.218Z,24.92
2022-12-11T13:30:08.342Z,26.38
2022-12-11T13:32:37.725Z,32.92
2022-12-11T13:35:08.196Z,27.67
2022-12-11T13:37:48.517Z,48.08
2022-12-11T13:40:26.189Z,21.65
2022-12-11T13:43:07.220Z,44.72
2022-12-11T13:45:48.579Z,42.90
2022-12-11T13:48:54.568Z,33.72
2022-12-11T13:51:26.066Z,33.38
2022-12-11T13:54:18.761Z,23.95
2022-12-11T13:56:57.401Z,22.25
2022-12-11T13:59:41.826Z,31.88
2022-12-11T14:02:28.255Z,22.05
2022-12-11T14:05:03.031Z,25.30
2022-12-11T14:07:39.058Z,27.42
2022-12-11T14:10:30.251Z,19.55
2022-12-11T14:13:22.318Z,21.40
2022-12-11T14:18:27.787Z,30.48
2022-12-11T14:21:04.562Z,28.40
2022-12-11T14:23:36.449Z,26.50
2022-12-11T14:26:24.726Z,26.20
2022-12-11T14:28:54.660Z,26.33
2022-12-11T14:31:36.713Z,32.28
2022-12-11T14:34:21.367Z,29.02
2022-12-11T14:36:51.033Z,39.38
2022-12-11T14:39:35.330Z,35.22
2022-12-11T14:42:43.965Z,33.60
2022-12-11T14:45:25.664Z,34.28
2022-12-11T14:47:55.968Z,30.02
2022-12-11T14:50:43.826Z,36.03
2022-12-11T14:53:32.173Z,37.00
2022-12-11T14:56:07.622Z,34.53
2022-12-11T14:58:47.722Z,44.40
2022-12-11T15:01:36.403Z,28.65
2022-12-11T15:04:16.703Z,41.60
2022-12-11T15:06:48.470Z,47.80
2022-12-11T15:09:26.660Z,41.25
2022-12-11T15:12:07.583Z,24.17
2022-12-11T15:14:36.197Z,35.27
2022-12-11T15:17:04.464Z,46.30
2022-12-11T15:19:35.109Z,37.20
2022-12-11T15:22:07.094Z,37.58
2022-12-11T15:24:42.856Z,35.00
2022-12-11T15:27:38.979Z,32.20
2022-12-11T15:30:29.256Z,36.80
2022-12-11T15:33:12.516Z,29.40
2022-12-11T15:35:59.440Z,31.85
2022-12-11T15:38:38.018Z,30.48
2022-12-11T15:41:14.120Z,30.95
2022-12-11T15:43:43.981Z,36.33
2022-12-11T15:46:13.121Z,41.78
2022-12-11T15:48:41.399Z,74.80
2022-12-11T15:51:10.919Z,27.92
2022-12-11T15:53:40.374Z,32.03
2022-12-11T15:56:17.348Z,32.38
2022-12-11T15:58:47.825Z,33.13
2022-12-11T16:01:16.086Z,30.48
2022-12-11T16:03:44.268Z,46.22
2022-12-11T16:06:14.098Z,74.20
2022-12-11T16:08:42.409Z,50.60
2022-12-11T16:11:15.995Z,50.38
2022-12-11T16:13:45.465Z,46.50
2022-12-11T16:16:13.521Z,28.45
2022-12-11T16:18:41.863Z,37.88
2022-12-11T16:21:10.024Z,39.00
2022-12-11T16:23:38.438Z,43.45
2022-12-11T16:26:10.148Z,40.03
2022-12-11T16:31:15.951Z,46.08
2022-12-11T16:33:44.675Z,51.25
2022-12-11T16:36:18.994Z,33.58
2022-12-11T16:38:53.480Z,37.72
2022-12-11T16:41:23.902Z,40.78
2022-12-11T16:43:53.822Z,30.45
2022-12-11T16:46:24.954Z,45.15
2022-12-11T16:48:56.150Z,44.47
2022-12-11T16:51:26.204Z,41.58
2022-12-11T16:53:57.608Z,39.60
2022-12-11T16:56:26.866Z,37.45
2022-12-11T16:58:56.267Z,41.00
2022-12-11T17:01:35.233Z,38.63
2022-12-11T17:04:06.109Z,42.15
2022-12-11T17:06:36.153Z,38.13
2022-12-11T17:09:07.257Z,35.33
2022-12-11T17:11:37.091Z,41.97
2022-12-11T17:14:07.733Z,39.70
2022-12-11T17:16:38.681Z,41.40
2022-12-11T17:19:07.936Z,36.55
2022-12-11T17:21:36.118Z,41.40
2022-12-11T17:24:04.789Z,42.15
2022-12-11T17:26:34.423Z,49.08
2022-12-11T17:29:03.636Z,37.72
2022-12-11T17:31:32.075Z,43.33
2022-12-11T17:34:01.104Z,38.17
2022-12-11T17:36:29.415Z,40.88
2022-12-11T17:38:58.703Z,47.08
2022-12-11T17:41:27.028Z,39.03
2022-12-11T17:43:56.489Z,39.90
2022-12-11T17:46:25.209Z,38.45
2022-12-11T17:48:53.883Z,40.40
2022-12-11T17:51:25.080Z,43.08
2022-12-11T17:53:57.279Z,41.40
2022-12-11T17:56:25.978Z,47.30
2022-12-11T17:58:54.621Z,34.92
2022-12-11T18:01:22.927Z,39.03
2022-12-11T18:03:51.171Z,40.60
2022-12-11T18:06:19.525Z,39.25
2022-12-11T18:08:48.142Z,36.67
2022-12-11T18:11:19.746Z,43.05
2022-12-11T18:13:49.138Z,28.10
2022-12-11T18:16:28.050Z,38.53
2022-12-11T18:18:57.073Z,39.22
2022-12-11T18:21:32.226Z,40.55
2022-12-11T18:24:02.046Z,36.42
2022-12-11T18:26:30.241Z,50.25
2022-12-11T18:28:58.364Z,34.97
2022-12-11T18:31:26.790Z,37.03
2022-12-11T18:33:55.658Z,34.85
2022-12-11T18:36:23.973Z,34.45
2022-12-11T18:38:52.210Z,36.08
2022-12-11T18:41:21.709Z,48.63
2022-12-11T18:43:49.874Z,36.60
2022-12-11T18:46:21.409Z,32.92
2022-12-11T18:48:50.853Z,31.73
2022-12-11T18:51:26.129Z,34.92
2022-12-11T18:53:54.367Z,32.78
2022-12-11T18:56:23.311Z,31.65
2022-12-11T18:58:52.533Z,32.90
2022-12-11T19:01:27.252Z,29.63
2022-12-11T19:04:04.202Z,25.50
2022-12-11T19:06:35.860Z,33.17
2022-12-11T19:09:06.900Z,33.58
2022-12-11T19:11:38.574Z,41.08
2022-12-11T19:16:40.105Z,26.42
2022-12-11T19:19:13.711Z,31.83
2022-12-11T19:21:43.022Z,32.03
2022-12-11T19:24:18.142Z,31.55
2022-12-11T19:26:49.772Z,32.92
2022-12-11T19:29:29.360Z,34.80
2022-12-11T19:31:57.720Z,28.17
2022-12-11T19:34:26.121Z,26.00
2022-12-11T19:36:54.163Z,26.63
2022-12-11T19:39:22.602Z,34.58
2022-12-11T19:41:50.894Z,34.20
2022-12-11T19:44:19.260Z,35.85
2022-12-11T19:46:47.944Z,34.70
2022-12-11T19:49:16.459Z,33.20
2022-12-11T19:51:45.155Z,36.20
2022-12-11T19:54:16.409Z,26.60
2022-12-11T19:56:45.897Z,44.25
2022-12-11T19:59:18.655Z,20.33
2022-12-11T20:01:50.720Z,30.08
2022-12-11T20:04:20.669Z,34.90
2022-12-11T20:06:49.362Z,30.83
2022-12-11T20:09:18.399Z,30.67
2022-12-11T20:11:48.350Z,31.75
2022-12-11T20:14:25.656Z,28.48
2022-12-11T20:17:13.787Z,28.60
2022-12-11T20:19:43.188Z,28.35
2022-12-11T20:22:11.891Z,25.23
2022-12-11T20:24:40.321Z,27.85
2022-12-11T20:27:09.855Z,35.15
2022-12-11T20:29:39.324Z,25.90
2022-12-11T20:32:07.712Z,24.90
2022-12-11T20:34:40.411Z,38.22
2022-12-11T20:37:09.732Z,36.42
2022-12-11T20:39:38.486Z,48.63
2022-12-11T20:42:09.790Z,42.88
2022-12-11T20:44:40.725Z,29.88
2022-12-11T20:47:13.360Z,38.60
2022-12-11T20:49:41.707Z,37.45
2022-12-11T20:52:09.950Z,38.50
2022-12-11T20:54:38.512Z,21.15
2022-12-11T20:57:07.513Z,31.85
2022-12-11T20:59:36.876Z,29.55
2022-12-11T21:02:05.803Z,27.20
2022-12-11T21:04:34.624Z,25.63
2022-12-11T21:07:02.936Z,35.67
2022-12-11T21:09:31.467Z,49.50
2022-12-11T21:12:01.095Z,33.15
2022-12-11T21:14:30.309Z,43.38
2022-12-11T21:16:59.974Z,37.05
2022-12-11T21:19:30.658Z,36.97
2022-12-11T21:21:58.904Z,49.90
2022-12-11T21:24:30.083Z,43.85
2022-12-11T21:26:59.342Z,55.45
2022-12-11T21:29:29.609Z,32.05
2022-12-11T21:31:58.349Z,27.05
2022-12-11T21:34:26.902Z,41.22
2022-12-11T21:36:57.396Z,33.90
2022-12-11T21:39:29.247Z,24.98
2022-12-11T21:41:58.481Z,31.80
2022-12-11T21:47:14.900Z,37.33
2022-12-11T21:49:43.074Z,46.63
2022-12-11T21:52:11.563Z,36.03
2022-12-11T21:54:39.881Z,35.25
2022-12-11T21:57:08.113Z,26.98
2022-12-11T21:59:36.040Z,31.77
2022-12-11T22:02:04.425Z,39.28
2022-12-11T22:04:32.523Z,32.63
2022-12-11T22:07:00.481Z,28.92
2022-12-11T22:09:28.542Z,40.35
2022-12-11T22:11:58.823Z,31.95
2022-12-11T22:14:27.792Z,31.17
2022-12-11T22:16:56.085Z,35.67
2022-12-11T22:19:27.830Z,32.85
2022-12-11T22:22:00.821Z,31.05
2022-12-11T22:24:28.862Z,26.10
2022-12-11T22:26:57.147Z,30.45
2022-12-11T22:29:25.444Z,31.70
2022-12-11T22:31:54.654Z,30.75
2022-12-11T22:34:22.817Z,35.50
2022-12-11T22:36:51.321Z,33.17
2022-12-11T22:39:19.289Z,32.40
2022-12-11T22:41:47.348Z,24.85
2022-12-11T22:44:21.530Z,25.90
2022-12-11T22:46:50.632Z,28.30
2022-12-11T22:49:20.511Z,35.05
2022-12-11T22:51:49.623Z,29.60
2022-12-11T22:54:17.706Z,24.90
2022-12-11T22:56:45.852Z,34.83
2022-12-11T22:59:13.918Z,32.10
2022-12-11T23:01:42.263Z,31.10
2022-12-11T23:04:10.261Z,30.92
2022-12-11T23:06:39.320Z,31.48
2022-12-11T23:09:07.453Z,33.47
2022-12-11T23:11:38.473Z,27.08
2022-12-11T23:14:14.396Z,26.23
2022-12-11T23:16:43.364Z,27.92
2022-12-11T23:19:12.683Z,31.92
2022-12-11T23:21:41.231Z,26.90
2022-12-11T23:24:11.164Z,26.63
2022-12-11T23:26:40.077Z,33.00
2022-12-11T23:29:08.438Z,31.45
2022-12-11T23:31:36.753Z,24.33
2022-12-11T23:34:05.132Z,25.80
2022-12-11T23:36:34.496Z,30.88
2022-12-11T23:39:02.532Z,33.50
2022-12-11T23:41:30.371Z,28.80
2022-12-11T23:43:58.442Z,36.35
2022-12-11T23:46:26.691Z,33.88
2022-12-11T23:48:56.035Z,34.30
2022-12-11T23:51:26.333Z,36.60
2022-12-11T23:53:54.838Z,35.95
2022-12-11T23:56:27.534Z,33.22
2022-12-11T23:58:56.724Z,38.80
